Time;durP1;ratioP1;P1;durP2;ratioP2;P2;SDS_P1;SDS_P2;PMS_P1;PMS_P2;Temp;Humidity;BMP_temperature;BMP_pressure;BME280_temperature;BME280_humidity;BME280_pressure;Samples;Min_cycle;Max_cycle;Signal;HPM_P1;HPM_P2
2022/05/05 00:01:08;;;;;;;;;;;;;;;14.32;81.11;99806.84;4883646;29;19970;-68
2022/05/05 00:03:38;;;;;;;;;;;;;;;14.28;80.86;99810.28;4883934;29;19924;-68
2022/05/05 00:06:08;;;;;;;;;;;;;;;14.24;81.06;99811.19;4883965;29;19923;-68
2022/05/05 00:08:38;;;;;;;;;;;;;;;14.21;81.39;99806.94;4883597;29;19959;-68
2022/05/05 00:16:22;;;;;;;;;;;;;;;14.07;81.21;99817.41;4883276;29;19928;-68
2022/05/05 00:18:51;;;;;;;;;;;;;;;14.04;81.37;99822.56;4883696;29;20394;-68
2022/05/05 00:21:20;;;;;;;;;;;;;;;13.99;81.06;99820.91;4866701;29;19967;-67
2022/05/05 00:23:50;;;;;;;;;;;;;;;13.96;81.56;99816.66;4883194;29;19923;-68
2022/05/05 00:26:19;;;;;;;;;;;;;;;13.93;81.55;99813.31;4884266;29;19941;-68
2022/05/05 00:28:47;;;;;;;;;;;;;;;13.91;81.72;99812.47;4883297;29;19924;-68
2022/05/05 00:31:16;;;;;;;;;;;;;;;13.92;81.24;99814.16;4883165;29;20397;-68
2022/05/05 00:33:45;;;;;;;;;;;;;;;13.87;81.34;99810.78;4883448;29;19928;-68
2022/05/05 00:36:13;;;;;;;;;;;;;;;13.90;81.77;99818.47;4883030;29;19934;-68
2022/05/05 00:38:42;;;;;;;;;;;;;;;13.88;81.43;99815.94;4883458;29;20262;-68
2022/05/05 00:41:12;;;;;;;;;;;;;;;13.85;81.27;99820.22;4883019;29;19931;-68
2022/05/05 00:43:41;;;;;;;;;;;;;;;13.86;81.42;99817.66;4882920;29;19924;-68
2022/05/05 00:46:10;;;;;;;;;;;;;;;13.86;81.68;99822.81;4883250;29;19924;-68
2022/05/05 00:48:40;;;;;;;;;;;;;;;13.87;81.49;99823.63;4882877;29;19930;-68
2022/05/05 00:51:09;;;;;;;;;;;;;;;13.82;81.34;99825.41;4882924;29;19971;-67
2022/05/05 00:53:38;;;;;;;;;;;;;;;13.81;81.49;99829.69;4882614;29;20345;-68
2022/05/05 00:56:08;;;;;;;;;;;;;;;13.75;81.25;99828.94;4882675;29;19946;-68
2022/05/05 00:58:39;;;;;;;;;;;;;;;13.77;81.54;99816.94;4882745;29;19963;-67
2022/05/05 01:01:08;;;;;;;;;;;;;;;13.75;81.18;99823.81;4882737;29;20018;-68
2022/05/05 01:03:37;;;;;;;;;;;;;;;13.71;81.28;99814.41;4882572;29;19931;-68
2022/05/05 01:06:07;;;;;;;;;;;;;;;13.71;81.22;99817.84;4882514;29;19930;-68
2022/05/05 01:08:37;;;;;;;;;;;;;;;13.73;81.14;99820.38;4882523;29;19930;-68
2022/05/05 01:11:05;;;;;;;;;;;;;;;13.70;81.27;99811.00;4882496;29;19923;-68
2022/05/05 01:13:34;;;;;;;;;;;;;;;13.69;81.41;99814.44;4882417;29;19930;-68
2022/05/05 01:16:05;;;;;;;;;;;;;;;13.67;81.43;99811.06;4882066;29;20327;-68
2022/05/05 01:18:34;;;;;;;;;;;;;;;13.68;81.26;99811.88;4882740;29;19930;-68
2022/05/05 01:21:03;;;;;;;;;;;;;;;13.64;81.13;99815.34;4882639;29;19952;-68
2022/05/05 01:23:34;;;;;;;;;;;;;;;13.62;81.29;99814.53;4882274;29;19930;-68
2022/05/05 01:28:43;;;;;;;;;;;;;;;13.60;80.94;99823.97;4882286;29;19924;-68
2022/05/05 01:31:12;;;;;;;;;;;;;;;13.60;81.23;99829.09;4882541;29;19960;-68
2022/05/05 01:33:40;;;;;;;;;;;;;;;13.61;81.38;99830.75;4882129;29;19928;-68
2022/05/05 01:36:09;;;;;;;;;;;;;;;13.63;81.20;99824.75;4865368;29;19924;-68
2022/05/05 01:38:41;;;;;;;;;;;;;;;13.61;81.21;99834.19;4881998;29;19979;-68
2022/05/05 01:41:10;;;;;;;;;;;;;;;13.58;81.36;99828.25;4882019;29;20436;-68
2022/05/05 01:43:40;;;;;;;;;;;;;;;13.59;80.86;99828.22;4882234;29;19947;-68
2022/05/05 01:46:09;;;;;;;;;;;;;;;13.60;81.34;99829.94;4881807;29;19924;-68
2022/05/05 01:48:38;;;;;;;;;;;;;;;13.59;80.93;99837.63;4881821;29;19924;-68
2022/05/05 01:51:08;;;;;;;;;;;;;;;13.53;81.22;99837.72;4882088;29;19930;-68
2022/05/05 01:53:37;;;;;;;;;;;;;;;13.54;81.29;99840.25;4881696;29;19972;-68
2022/05/05 01:56:09;;;;;;;;;;;;;;;13.54;81.50;99841.94;4881559;29;19962;-68
2022/05/05 01:58:38;;;;;;;;;;;;;;;13.53;81.25;99840.28;4882055;29;19959;-68
2022/05/05 02:01:07;;;;;;;;;;;;;;;13.52;81.09;99851.38;4881987;29;19930;-68
2022/05/05 02:03:36;;;;;;;;;;;;;;;13.52;81.17;99846.25;4881607;29;19924;-68
2022/05/05 02:06:06;;;;;;;;;;;;;;;13.53;81.36;99848.81;4881375;29;19927;-68
2022/05/05 02:08:37;;;;;;;;;;;;;;;13.50;81.48;99855.69;4880988;29;20433;-68
2022/05/05 02:11:06;;;;;;;;;;;;;;;13.47;81.05;99859.13;4881453;29;19923;-68
2022/05/05 02:13:36;;;;;;;;;;;;;;;13.48;81.56;99855.72;4881464;29;19979;-68
2022/05/05 02:16:05;;;;;;;;;;;;;;;13.52;81.29;99861.63;4881160;29;20344;-68
2022/05/05 02:18:33;;;;;;;;;;;;;;;13.51;81.59;99859.97;4881638;29;20426;-68
2022/05/05 02:21:02;;;;;;;;;;;;;;;13.50;81.56;99873.63;4881222;29;19924;-68
2022/05/05 02:23:31;;;;;;;;;;;;;;;13.46;81.51;99875.34;4864601;29;19923;-68
2022/05/05 02:25:59;;;;;;;;;;;;;;;13.37;81.41;99867.75;4881447;29;20030;-69
2022/05/05 02:28:29;;;;;;;;;;;;;;;13.22;81.72;99861.06;4881065;29;19975;-69
2022/05/05 02:31:00;;;;;;;;;;;;;;;13.11;81.94;99859.44;4881112;29;19936;-68
2022/05/05 02:33:28;;;;;;;;;;;;;;;13.02;82.09;99870.59;4864447;29;19955;-69
2022/05/05 02:41:11;;;;;;;;;;;;;;;12.81;83.43;99855.38;4879841;29;19930;-66
2022/05/05 02:43:40;;;;;;;;;;;;;;;12.84;83.84;99839.16;4881157;29;20347;-67
2022/05/05 02:46:11;;;;;;;;;;;;;;;12.90;83.96;99829.69;4880808;29;19967;-67
2022/05/05 02:48:43;;;;;;;;;;;;;;;12.94;83.73;99826.25;4880833;29;19924;-67
2022/05/05 02:51:15;;;;;;;;;;;;;;;12.96;84.34;99821.94;4880785;29;19945;-67
2022/05/05 02:56:26;;;;;;;;;;;;;;;13.09;84.52;99826.16;4881087;29;20347;-67
2022/05/05 02:58:54;;;;;;;;;;;;;;;13.17;84.70;99826.91;4864264;29;19927;-67
2022/05/05 03:01:24;;;;;;;;;;;;;;;13.20;84.65;99816.66;4881217;29;20026;-67
2022/05/05 03:03:56;;;;;;;;;;;;;;;13.22;84.88;99814.91;4880627;29;19924;-67
2022/05/05 03:06:28;;;;;;;;;;;;;;;13.27;84.95;99832.81;4880548;29;19923;-67
2022/05/05 03:09:00;;;;;;;;;;;;;;;13.26;84.94;99832.00;4880673;29;20383;-67
2022/05/05 03:11:29;;;;;;;;;;;;;;;13.28;84.95;99832.81;4880801;29;20042;-67
2022/05/05 03:13:57;;;;;;;;;;;;;;;13.31;85.25;99837.06;4880726;29;20327;-67
2022/05/05 03:16:28;;;;;;;;;;;;;;;13.35;85.09;99833.59;4880220;29;19963;-67
2022/05/05 03:18:57;;;;;;;;;;;;;;;13.37;85.22;99831.88;4880464;29;20002;-67
2022/05/05 03:21:26;;;;;;;;;;;;;;;13.34;84.85;99840.44;4879803;29;19931;-67
2022/05/05 03:23:57;;;;;;;;;;;;;;;13.36;85.33;99836.13;4880570;29;19927;-67
2022/05/05 03:26:26;;;;;;;;;;;;;;;13.40;84.85;99837.81;4880283;29;19952;-67
2022/05/05 03:28:55;;;;;;;;;;;;;;;13.41;84.82;99831.81;4880562;29;19927;-67
2022/05/05 03:31:23;;;;;;;;;;;;;;;13.42;84.98;99836.09;4880137;29;20014;-67
2022/05/05 03:33:54;;;;;;;;;;;;;;;13.47;85.04;99830.06;4880327;29;19924;-67
2022/05/05 03:36:23;;;;;;;;;;;;;;;13.46;84.62;99825.81;4880225;29;19955;-67
2022/05/05 03:38:52;;;;;;;;;;;;;;;13.40;84.88;99837.81;4880116;29;20295;-67
2022/05/05 03:41:21;;;;;;;;;;;;;;;13.42;84.45;99837.81;4880723;29;19931;-66
2022/05/05 03:43:49;;;;;;;;;;;;;;;13.43;84.53;99848.06;4880099;29;19924;-67
2022/05/05 03:46:21;;;;;;;;;;;;;;;13.47;84.69;99837.75;4880033;29;19959;-67
2022/05/05 03:48:50;;;;;;;;;;;;;;;13.48;84.43;99849.72;4880369;29;19923;-67
2022/05/05 03:51:29;;;;;;;;;;;;;;;13.43;84.54;99860.88;4880092;29;19930;-67
2022/05/05 03:54:01;;;;;;;;;;;;;;;13.43;84.55;99871.13;4880206;29;19979;-67
2022/05/05 03:56:30;;;;;;;;;;;;;;;13.44;84.81;99865.13;4880342;29;19923;-67
2022/05/05 03:58:58;;;;;;;;;;;;;;;13.46;84.78;99869.41;4879862;29;19972;-67
2022/05/05 04:01:27;;;;;;;;;;;;;;;13.44;84.45;99869.41;4879902;29;19931;-67
2022/05/05 04:03:55;;;;;;;;;;;;;;;13.46;84.38;99877.91;4880278;29;20031;-67
2022/05/05 04:06:24;;;;;;;;;;;;;;;13.49;84.40;99874.47;4880521;29;20284;-67
2022/05/05 04:08:54;;;;;;;;;;;;;;;13.51;84.20;99875.34;4879793;29;19963;-65
2022/05/05 04:11:23;;;;;;;;;;;;;;;13.51;84.09;99883.03;4879877;29;19924;-67
2022/05/05 04:13:51;;;;;;;;;;;;;;;13.51;84.29;99881.28;4878906;29;19927;-67
2022/05/05 04:16:23;;;;;;;;;;;;;;;13.48;84.06;99877.94;4879597;29;19923;-67
2022/05/05 04:18:52;;;;;;;;;;;;;;;13.47;83.66;99889.03;4880126;29;19982;-66
2022/05/05 04:21:20;;;;;;;;;;;;;;;13.50;84.10;99894.16;4879906;29;20377;-66
2022/05/05 04:23:54;;;;;;;;;;;;;;;13.44;83.53;99906.16;4879856;29;19923;-67
2022/05/05 04:26:23;;;;;;;;;;;;;;;13.33;83.71;99897.72;4880112;29;19970;-67
2022/05/05 04:28:56;;;;;;;;;;;;;;;13.38;83.93;99890.84;4879759;29;19923;-66
2022/05/05 04:31:27;;;;;;;;;;;;;;;13.35;84.10;99895.97;4881108;29;19928;-66
2022/05/05 04:33:56;;;;;;;;;;;;;;;13.35;84.50;99895.13;4883441;29;19975;-67
2022/05/05 04:36:28;;;;;;;;;;;;;;;13.20;84.07;99911.47;4883134;29;19931;-67
2022/05/05 04:39:01;;;;;;;;;;;;;;;13.09;84.50;99902.19;4883102;29;20371;-67
2022/05/05 04:41:33;;;;;;;;;;;;;;;13.13;84.42;99886.75;4882996;29;19930;-66
2022/05/05 04:44:02;;;;;;;;;;;;;;;13.09;84.51;99890.22;4883385;29;19930;-67
2022/05/05 04:46:30;;;;;;;;;;;;;;;13.14;84.89;99906.41;4883570;29;20435;-66
2022/05/05 04:49:02;;;;;;;;;;;;;;;13.21;85.13;99892.69;4882881;29;20385;-66
2022/05/05 04:51:46;;;;;;;;;;;;;;;13.25;85.19;99893.50;4882810;29;19980;-65
2022/05/05 04:54:19;;;;;;;;;;;;;;;13.23;85.65;99885.84;4883089;29;19930;-66
2022/05/05 04:56:48;;;;;;;;;;;;;;;13.24;85.56;99876.44;4882837;29;20037;-65
2022/05/05 04:59:19;;;;;;;;;;;;;;;13.24;85.67;99891.81;4882704;29;19932;-66
2022/05/05 05:01:48;;;;;;;;;;;;;;;13.28;85.36;99894.34;4882985;29;19994;-66
2022/05/05 05:04:24;;;;;;;;;;;;;;;13.31;85.38;99903.72;4882776;29;19923;-66
2022/05/05 05:06:56;;;;;;;;;;;;;;;13.37;85.51;99907.06;4882927;29;20435;-66
2022/05/05 05:09:32;;;;;;;;;;;;;;;13.38;85.56;99911.34;4882962;29;19995;-67
2022/05/05 05:12:04;;;;;;;;;;;;;;;13.41;85.71;99906.16;4882482;29;19955;-66
2022/05/05 05:14:32;;;;;;;;;;;;;;;13.47;85.61;99907.84;4882033;29;19963;-68
2022/05/05 05:17:05;;;;;;;;;;;;;;;13.54;85.37;99916.31;4882409;29;20027;-66
2022/05/05 05:19:34;;;;;;;;;;;;;;;13.56;85.79;99904.34;4882463;29;19975;-66
2022/05/05 05:22:02;;;;;;;;;;;;;;;13.62;85.31;99901.72;4882617;29;20018;-66
2022/05/05 05:24:42;;;;;;;;;;;;;;;13.63;85.58;99906.00;4882238;29;20405;-66
2022/05/05 05:27:10;;;;;;;;;;;;;;;13.62;85.01;99900.03;4882613;29;20331;-66
2022/05/05 05:29:39;;;;;;;;;;;;;;;13.62;85.19;99901.72;4882473;29;20375;-66
2022/05/05 05:32:09;;;;;;;;;;;;;;;13.60;85.25;99891.50;4882420;29;19923;-66
2022/05/05 05:34:37;;;;;;;;;;;;;;;13.57;85.15;99895.78;4882213;29;19966;-66
2022/05/05 05:37:06;;;;;;;;;;;;;;;13.59;84.87;99896.63;4882129;29;19983;-66
2022/05/05 05:39:42;;;;;;;;;;;;;;;13.53;84.97;99884.72;4882377;29;19924;-66
2022/05/05 05:42:11;;;;;;;;;;;;;;;13.57;84.79;99885.53;4881563;29;20013;-66
2022/05/05 05:44:42;;;;;;;;;;;;;;;13.62;85.20;99888.91;4881505;29;19980;-66
2022/05/05 05:47:12;;;;;;;;;;;;;;;13.60;85.08;99896.63;4882291;29;20325;-66
2022/05/05 05:49:44;;;;;;;;;;;;;;;13.63;85.31;99900.88;4881803;29;19931;-66
2022/05/05 05:52:16;;;;;;;;;;;;;;;13.68;85.41;99896.53;4882137;29;19976;-66
2022/05/05 05:54:46;;;;;;;;;;;;;;;13.78;85.47;99905.84;4881967;29;20367;-66
2022/05/05 05:57:21;;;;;;;;;;;;;;;13.84;85.48;99905.78;4882044;29;20331;-66
2022/05/05 05:59:59;;;;;;;;;;;;;;;13.90;85.57;99908.28;4882000;29;20291;-66
2022/05/05 06:05:17;;;;;;;;;;;;;;;13.95;85.22;99903.94;4881607;29;19927;-64
2022/05/05 06:07:49;;;;;;;;;;;;;;;14.06;85.36;99909.78;4881665;29;19924;-66
2022/05/05 06:10:20;;;;;;;;;;;;;;;14.11;85.29;99910.59;4881513;29;19980;-66
2022/05/05 06:12:51;;;;;;;;;;;;;;;14.14;84.82;99908.00;4881653;29;19923;-66
2022/05/05 06:15:22;;;;;;;;;;;;;;;14.20;84.74;99910.53;4881504;29;19931;-67
2022/05/05 06:17:51;;;;;;;;;;;;;;;14.30;85.18;99909.53;4881656;29;20371;-67
2022/05/05 06:20:20;;;;;;;;;;;;;;;14.42;85.18;99906.84;4881597;29;20018;-66
2022/05/05 06:22:50;;;;;;;;;;;;;;;14.54;84.93;99911.81;4881531;29;20362;-67
2022/05/05 06:25:24;;;;;;;;;;;;;;;14.69;85.02;99914.19;4881079;29;20014;-67
2022/05/05 06:27:58;;;;;;;;;;;;;;;14.91;85.04;99913.88;4881139;29;19940;-67
2022/05/05 06:30:32;;;;;;;;;;;;;;;15.07;84.55;99917.94;4881205;29;20022;-67
2022/05/05 06:33:07;;;;;;;;;;;;;;;15.14;84.65;99916.97;4881388;29;19924;-67
2022/05/05 06:35:36;;;;;;;;;;;;;;;15.20;84.33;99929.72;4864506;29;20357;-67
2022/05/05 06:38:05;;;;;;;;;;;;;;;15.24;84.12;99928.78;4881012;29;20336;-67
2022/05/05 06:40:38;;;;;;;;;;;;;;;15.19;83.54;99925.44;4880846;29;19930;-67
2022/05/05 06:43:16;;;;;;;;;;;;;;;15.04;83.79;99923.13;4881136;29;19935;-67
2022/05/05 06:45:44;;;;;;;;;;;;;;;15.03;83.61;99926.56;4881074;29;20282;-67
2022/05/05 06:48:13;;;;;;;;;;;;;;;15.08;83.31;99924.75;4881055;29;19923;-68
2022/05/05 06:50:42;;;;;;;;;;;;;;;15.10;83.31;99925.59;4880963;29;19939;-68
2022/05/05 06:53:11;;;;;;;;;;;;;;;15.15;82.96;99931.50;4881009;29;19930;-68
2022/05/05 06:55:41;;;;;;;;;;;;;;;15.18;83.11;99931.47;4880275;29;19924;-68
2022/05/05 06:58:09;;;;;;;;;;;;;;;15.13;82.72;99934.13;4879279;29;19923;-68
2022/05/05 07:03:16;;;;;;;;;;;;;;;15.21;82.75;99939.16;4879269;29;20000;-68
2022/05/05 07:05:45;;;;;;;;;;;;;;;15.29;82.62;99943.28;4880497;29;19927;-68
2022/05/05 07:08:14;;;;;;;;;;;;;;;15.41;82.87;99944.81;4879925;29;19971;-68
2022/05/05 07:13:24;;;;;;;;;;;;;;;15.60;82.75;99941.09;4880212;29;19924;-68
2022/05/05 07:15:52;;;;;;;;;;;;;;;15.74;82.67;99948.59;4879300;29;19923;-68
2022/05/05 07:18:21;;;;;;;;;;;;;;;15.76;82.38;99947.69;4880661;29;19923;-67
2022/05/05 07:20:50;;;;;;;;;;;;;;;15.87;82.49;99940.63;4880261;29;19923;-68
2022/05/05 07:23:19;;;;;;;;;;;;;;;16.02;81.88;99945.50;4880232;29;20010;-67
2022/05/05 07:25:49;;;;;;;;;;;;;;;16.01;81.47;99948.94;4880479;29;20382;-67
2022/05/05 07:28:18;;;;;;;;;;;;;;;16.21;81.22;99945.13;4877101;29;19934;-67
2022/05/05 07:30:47;;;;;;;;;;;;;;;16.33;80.82;99950.06;4880231;29;19930;-67
2022/05/05 07:33:16;;;;;;;;;;;;;;;16.56;80.66;99943.59;4877578;29;19924;-67
2022/05/05 07:35:47;;;;;;;;;;;;;;;16.62;80.00;99945.19;4861547;29;19923;-67
2022/05/05 07:38:16;;;;;;;;;;;;;;;16.70;79.49;99940.72;4865525;29;19931;-67
2022/05/05 07:40:50;;;;;;;;;;;;;;;16.83;78.44;99944.72;4880174;29;19924;-67
2022/05/05 07:43:19;;;;;;;;;;;;;;;16.71;77.69;99947.56;4880001;29;19924;-67
2022/05/05 07:45:49;;;;;;;;;;;;;;;16.69;77.06;99949.34;4874241;29;19976;-67
2022/05/05 07:48:19;;;;;;;;;;;;;;;16.61;76.60;99946.91;4861622;29;20035;-67
2022/05/05 07:50:48;;;;;;;;;;;;;;;16.75;76.76;99944.03;4861994;29;19928;-67
2022/05/05 07:53:17;;;;;;;;;;;;;;;16.95;76.34;99941.88;4861441;29;19924;-67
2022/05/05 07:55:45;;;;;;;;;;;;;;;17.17;76.05;99943.09;4861201;29;19931;-67
2022/05/05 07:58:15;;;;;;;;;;;;;;;17.21;75.01;99949.88;4861372;29;19924;-67
2022/05/05 08:00:44;;;;;;;;;;;;;;;17.34;74.17;99946.13;4861248;29;19931;-68
2022/05/05 08:03:13;;;;;;;;;;;;;;;17.53;73.62;99950.88;4879781;29;19959;-68
2022/05/05 08:05:42;;;;;;;;;;;;;;;17.71;72.69;99958.16;4880097;29;19931;-67
2022/05/05 08:08:10;;;;;;;;;;;;;;;17.83;72.22;99955.25;4883438;29;20018;-67
2022/05/05 08:10:40;;;;;;;;;;;;;;;17.95;71.51;99960.09;4883466;29;19931;-68
2022/05/05 08:13:09;;;;;;;;;;;;;;;18.00;70.63;99955.66;4883386;29;19927;-67
2022/05/05 08:15:40;;;;;;;;;;;;;;;18.13;70.30;99958.78;4884447;29;19996;-68
2022/05/05 08:18:08;;;;;;;;;;;;;;;18.28;69.96;99959.22;4865108;29;19928;-69
2022/05/05 08:20:37;;;;;;;;;;;;;;;18.45;69.22;99962.16;4864717;29;19924;-68
2022/05/05 08:23:06;;;;;;;;;;;;;;;18.81;69.06;99969.81;4865070;29;19947;-68
2022/05/05 08:30:52;;;;;;;;;;;;;;;19.22;66.86;99966.78;4864593;29;19924;-68
2022/05/05 08:33:23;;;;;;;;;;;;;;;19.49;67.03;99970.28;4864559;29;19959;-68
2022/05/05 08:35:52;;;;;;;;;;;;;;;19.45;66.39;99969.53;4864761;29;20011;-68
2022/05/05 08:38:21;;;;;;;;;;;;;;;19.26;65.79;99968.41;4864486;29;19924;-67
2022/05/05 08:40:51;;;;;;;;;;;;;;;19.37;65.77;99971.53;4864888;29;19924;-68
2022/05/05 08:43:19;;;;;;;;;;;;;;;19.40;65.11;99966.25;4882236;29;19962;-67
2022/05/05 08:45:49;;;;;;;;;;;;;;;19.48;65.40;99966.88;4882863;29;19923;-68
2022/05/05 08:48:19;;;;;;;;;;;;;;;19.56;65.36;99961.41;4866192;29;19930;-68
2022/05/05 08:50:53;;;;;;;;;;;;;;;19.62;64.77;99956.91;4883038;29;19971;-67
2022/05/05 08:53:25;;;;;;;;;;;;;;;19.72;65.52;99963.47;4883244;29;19930;-68
2022/05/05 08:55:54;;;;;;;;;;;;;;;19.81;64.80;99957.13;4882948;29;20331;-68
2022/05/05 08:58:22;;;;;;;;;;;;;;;19.90;64.85;99957.66;4882179;29;19972;-67
2022/05/05 09:00:52;;;;;;;;;;;;;;;19.77;64.40;99961.53;4882364;29;19923;-67
2022/05/05 09:03:22;;;;;;;;;;;;;;;19.78;64.34;99965.84;4882587;29;19924;-68
2022/05/05 09:05:52;;;;;;;;;;;;;;;19.87;64.00;99965.53;4882884;29;20286;-68
2022/05/05 09:08:31;;;;;;;;;;;;;;;20.06;63.81;99970.91;4882410;29;19930;-67
2022/05/05 09:11:01;;;;;;;;;;;;;;;20.19;62.34;99961.81;4882610;29;19923;-67
2022/05/05 09:13:31;;;;;;;;;;;;;;;20.18;62.02;99967.06;4882955;29;19928;-68
2022/05/05 09:15:59;;;;;;;;;;;;;;;20.14;61.70;99966.31;4882216;29;19970;-67
2022/05/05 09:18:31;;;;;;;;;;;;;;;20.31;61.38;99965.75;4880956;29;19996;-67
2022/05/05 09:21:03;;;;;;;;;;;;;;;20.28;60.60;99973.63;4882118;29;20022;-67
2022/05/05 09:23:33;;;;;;;;;;;;;;;20.37;61.05;99973.34;4886078;29;20018;-68
2022/05/05 09:26:03;;;;;;;;;;;;;;;20.61;60.60;99962.06;4901217;29;19931;-68
2022/05/05 09:28:35;;;;;;;;;;;;;;;20.77;59.97;99973.56;4901520;29;19923;-67
2022/05/05 09:31:05;;;;;;;;;;;;;;;20.77;60.12;99978.75;4894589;29;19924;-68
2022/05/05 09:33:44;;;;;;;;;;;;;;;20.84;60.05;99969.81;4878911;29;19957;-68
2022/05/05 09:36:14;;;;;;;;;;;;;;;20.81;59.48;99969.94;4880937;29;20374;-67
2022/05/05 09:38:53;;;;;;;;;;;;;;;20.94;59.19;99970.31;4878117;29;20390;-67
2022/05/05 09:41:23;;;;;;;;;;;;;;;21.05;58.44;99969.03;4882297;29;20366;-67
2022/05/05 09:44:01;;;;;;;;;;;;;;;21.12;57.99;99972.22;4882188;29;19997;-68
2022/05/05 09:46:33;;;;;;;;;;;;;;;21.28;58.62;99971.56;4866574;29;19967;-68
2022/05/05 09:49:08;;;;;;;;;;;;;;;21.01;57.48;99962.25;4900733;29;19930;-67
2022/05/05 09:51:39;;;;;;;;;;;;;;;21.17;58.98;99967.69;4900337;29;20370;-68
2022/05/05 09:59:40;;;;;;;;;;;;;;;21.54;57.09;99961.88;4876948;29;19923;-68
2022/05/05 10:02:17;;;;;;;;;;;;;;;21.44;56.54;99955.38;4900405;29;19923;-69
2022/05/05 10:04:49;;;;;;;;;;;;;;;21.47;55.92;99950.06;4900274;29;19975;-68
2022/05/05 10:07:20;;;;;;;;;;;;;;;21.44;54.69;99956.22;4900927;29;19930;-68
2022/05/05 10:09:50;;;;;;;;;;;;;;;21.27;54.57;99956.91;4900239;29;19962;-68
2022/05/05 10:12:19;;;;;;;;;;;;;;;21.52;55.66;99954.16;4900134;29;19923;-68
2022/05/05 10:14:48;;;;;;;;;;;;;;;21.69;55.73;99956.91;4898997;29;20363;-69
2022/05/05 10:17:18;;;;;;;;;;;;;;;21.82;55.44;99946.84;4890855;29;19987;-67
2022/05/05 10:19:52;;;;;;;;;;;;;;;21.76;53.84;99952.31;4896651;29;20390;-68
2022/05/05 10:22:27;;;;;;;;;;;;;;;21.83;53.98;99943.34;4874258;29;19931;-67
2022/05/05 10:24:59;;;;;;;;;;;;;;;21.89;54.94;99948.28;4849700;29;20310;-68
2022/05/05 10:27:28;;;;;;;;;;;;;;;21.88;55.68;99941.44;4865189;29;19963;-70
2022/05/05 10:29:57;;;;;;;;;;;;;;;21.99;55.26;99947.00;4879446;29;19966;-67
2022/05/05 10:32:28;;;;;;;;;;;;;;;21.91;53.13;99941.28;4862698;29;19924;-67
2022/05/05 10:35:08;;;;;;;;;;;;;;;21.92;54.54;99942.97;4862727;29;19924;-67
2022/05/05 10:37:38;;;;;;;;;;;;;;;21.83;52.84;99944.19;4862443;29;19924;-64
2022/05/05 10:40:07;;;;;;;;;;;;;;;21.70;52.61;99943.00;4862552;29;19942;-65
2022/05/05 10:42:39;;;;;;;;;;;;;;;21.68;52.38;99938.78;4869839;29;19930;-66
2022/05/05 10:45:14;;;;;;;;;;;;;;;21.81;52.26;99939.97;4882793;29;20022;-66
2022/05/05 10:47:55;;;;;;;;;;;;;;;21.73;52.21;99935.09;4880743;29;19954;-65
2022/05/05 10:50:31;;;;;;;;;;;;;;;21.74;53.00;99934.16;4879552;29;19930;-66
2022/05/05 10:53:00;;;;;;;;;;;;;;;21.88;52.48;99925.84;4880629;29;20443;-66
2022/05/05 10:55:33;;;;;;;;;;;;;;;22.11;52.52;99928.28;4881015;29;19923;-66
2022/05/05 10:58:32;;;;;;;;;;;;;;;22.31;52.23;99930.84;4880580;29;20390;-66
2022/05/05 11:01:01;;;;;;;;;;;;;;;22.38;51.28;99926.22;4880961;29;19924;-67
2022/05/05 11:03:29;;;;;;;;;;;;;;;22.40;52.53;99930.44;4880648;29;19931;-66
2022/05/05 11:06:13;;;;;;;;;;;;;;;22.35;52.40;99931.53;4880851;29;19928;-66
2022/05/05 11:08:54;;;;;;;;;;;;;;;22.20;51.84;99938.25;4880869;29;19930;-66
2022/05/05 11:21:31;;;;;;;;;;;;;;;22.17;52.80;99941.00;4874596;29;19930;-66
2022/05/05 11:22:32;;;;;;;;;;;;;;;22.78;50.31;99927.84;4880263;29;20438;-65
2022/05/05 11:25:02;;;;;;;;;;;;;;;22.76;49.90;99929.69;4875792;29;19928;-66
2022/05/05 11:27:31;;;;;;;;;;;;;;;22.81;49.62;99925.13;4880519;29;19974;-66
2022/05/05 11:30:00;;;;;;;;;;;;;;;22.71;49.78;99918.66;4880189;29;19973;-66
2022/05/05 11:32:30;;;;;;;;;;;;;;;22.75;50.64;99915.81;4880881;29;19974;-67
2022/05/05 11:34:59;;;;;;;;;;;;;;;22.58;50.24;99919.19;4880056;29;20014;-65
2022/05/05 11:37:28;;;;;;;;;;;;;;;22.46;50.53;99919.72;4880228;29;20026;-65
2022/05/05 11:39:57;;;;;;;;;;;;;;;22.62;49.93;99910.38;4880170;29;20370;-66
2022/05/05 11:42:28;;;;;;;;;;;;;;;22.64;49.89;99908.53;4879575;29;19931;-65
2022/05/05 11:44:56;;;;;;;;;;;;;;;22.47;50.49;99911.03;4879945;29;19962;-66
2022/05/05 11:47:26;;;;;;;;;;;;;;;22.31;51.05;99919.59;4880612;29;20256;-66
2022/05/05 11:49:57;;;;;;;;;;;;;;;22.36;52.26;99913.25;4879184;29;19952;-64
2022/05/05 11:52:26;;;;;;;;;;;;;;;22.44;51.22;99911.16;4879939;29;20366;-66
2022/05/05 11:54:56;;;;;;;;;;;;;;;22.55;51.31;99908.94;4880085;29;20018;-65
2022/05/05 11:57:33;;;;;;;;;;;;;;;22.74;51.27;99902.88;4880320;29;19931;-66
2022/05/05 12:02:39;;;;;;;;;;;;;;;22.88;51.38;99895.28;4898627;29;19963;-66
2022/05/05 12:05:13;;;;;;;;;;;;;;;22.93;51.42;99895.91;4895347;29;20027;-66
2022/05/05 12:07:44;;;;;;;;;;;;;;;22.85;51.64;99898.88;4879921;29;19976;-64
2022/05/05 12:10:14;;;;;;;;;;;;;;;22.94;52.01;99895.00;4879459;29;20294;-66
2022/05/05 12:12:45;;;;;;;;;;;;;;;22.92;50.46;99896.81;4881596;29;19931;-67
2022/05/05 12:15:16;;;;;;;;;;;;;;;22.96;50.21;99886.16;4885754;29;19924;-66
2022/05/05 12:17:47;;;;;;;;;;;;;;;23.06;50.46;99874.41;4879800;29;19923;-66
2022/05/05 12:20:19;;;;;;;;;;;;;;;23.31;51.17;99880.09;4880101;29;19944;-67
2022/05/05 12:22:54;;;;;;;;;;;;;;;23.52;50.00;99878.22;4879677;29;19955;-66
2022/05/05 12:25:24;;;;;;;;;;;;;;;23.66;48.75;99880.97;4879017;29;19923;-66
2022/05/05 12:28:03;;;;;;;;;;;;;;;23.42;49.34;99881.38;4879497;29;19963;-66
2022/05/05 12:30:34;;;;;;;;;;;;;;;23.10;50.00;99880.31;4880364;29;19924;-66
2022/05/05 12:33:03;;;;;;;;;;;;;;;23.17;50.04;99871.28;4879600;29;19931;-66
2022/05/05 12:35:37;;;;;;;;;;;;;;;23.05;49.30;99866.66;4879560;29;19930;-65
2022/05/05 12:38:06;;;;;;;;;;;;;;;23.15;48.90;99862.72;4877163;29;20381;-66
2022/05/05 12:40:35;;;;;;;;;;;;;;;23.20;48.91;99858.94;4878292;29;20343;-65
2022/05/05 12:43:06;;;;;;;;;;;;;;;23.31;48.00;99856.66;4879490;29;19924;-66
2022/05/05 12:45:36;;;;;;;;;;;;;;;23.46;48.57;99846.41;4879769;29;20000;-65
2022/05/05 12:48:06;;;;;;;;;;;;;;;23.56;47.34;99848.50;4879928;29;20298;-65
2022/05/05 12:50:36;;;;;;;;;;;;;;;23.57;46.63;99847.56;4879776;29;20335;-65
2022/05/05 13:01:20;;;;;;;;;;;;;;;23.69;46.97;99841.72;4882897;29;19924;-66
2022/05/05 13:03:48;;;;;;;;;;;;;;;23.67;46.45;99834.88;4883114;29;19945;-65
2022/05/05 13:06:17;;;;;;;;;;;;;;;23.65;45.99;99834.97;4883078;29;20274;-65
2022/05/05 13:08:51;;;;;;;;;;;;;;;23.71;47.12;99832.03;4882961;29;19971;-67
2022/05/05 13:11:19;;;;;;;;;;;;;;;23.78;46.37;99827.34;4882482;29;20405;-66
2022/05/05 13:14:14;;;;;;;;;;;;;;;23.85;47.59;99834.75;4876313;29;19951;-66
2022/05/05 13:16:44;;;;;;;;;;;;;;;23.92;47.79;99830.91;4877992;29;19923;-65
2022/05/05 13:19:13;;;;;;;;;;;;;;;24.02;48.51;99827.84;4881613;29;20422;-66
2022/05/05 13:21:42;;;;;;;;;;;;;;;24.07;47.41;99836.28;4882618;29;20401;-65
2022/05/05 13:24:11;;;;;;;;;;;;;;;24.17;47.32;99821.81;4882543;29;19930;-66
2022/05/05 13:26:40;;;;;;;;;;;;;;;24.15;47.00;99832.34;4882267;29;19924;-65
2022/05/05 13:29:09;;;;;;;;;;;;;;;23.92;46.69;99836.13;4882275;29;20014;-65
2022/05/05 13:31:40;;;;;;;;;;;;;;;23.88;47.28;99824.19;4865566;29;19930;-65
2022/05/05 13:34:10;;;;;;;;;;;;;;;23.89;47.75;99825.88;4882516;29;19923;-66
2022/05/05 13:36:39;;;;;;;;;;;;;;;23.97;47.71;99820.25;4882247;29;19946;-66
2022/05/05 13:39:11;;;;;;;;;;;;;;;24.02;47.49;99813.00;4878834;29;19974;-66
2022/05/05 13:41:40;;;;;;;;;;;;;;;23.86;47.40;99826.03;4876460;29;19959;-66
2022/05/05 13:44:09;;;;;;;;;;;;;;;23.78;47.52;99825.59;4881989;29;19984;-66
2022/05/05 13:46:38;;;;;;;;;;;;;;;23.75;47.67;99812.72;4881903;29;19975;-66
2022/05/05 13:49:08;;;;;;;;;;;;;;;23.71;48.05;99821.63;4882218;29;19974;-65
2022/05/05 13:51:39;;;;;;;;;;;;;;;23.65;47.84;99816.72;4881935;29;20006;-66
2022/05/05 13:54:28;;;;;;;;;;;;;;;23.54;47.96;99819.03;4882065;29;20385;-65
2022/05/05 13:56:57;;;;;;;;;;;;;;;23.57;46.34;99805.84;4881657;29;20327;-65
2022/05/05 13:59:26;;;;;;;;;;;;;;;23.61;46.47;99809.16;4881001;29;19972;-65